Amherst, Canada
Current Conditions -  °F | °C
As of 7:00 AM on Wednesday 26 Nov 2014 (Local Time) from CYQM Reporting Station
Overcast Overcast  
Wind Chill: 32°   Ceiling: 21000
Heat Index: 39°   Visibility: 15mi
Dew Point: 27°   Wind: 12mph
Humidity: 61%   Direction: 240°WSW
Pressure: 30.09"   Gusts: NA
Location:  45.85°N, 64.27°W
Report Text: CYQM 261100Z 24010KT 15SM FEW120 BKN210 OVC250 04/M03 A3009 RMK AC1CI5CI2 SLP191
Loading
Personal Weather Stations






























Interactive Weather Map New forecast layout! Learn more

10-Day Weather Forecast

Advertisements
Track Severe Weather on mobile